createdAt,value
2017-12-29T00:01:10.202Z,78.10
2017-12-29T00:03:37.846Z,77.76
2017-12-29T00:06:05.446Z,77.52
2017-12-29T00:08:33.910Z,78.96
2017-12-29T00:11:01.470Z,78.07
2017-12-29T00:13:29.042Z,77.62
2017-12-29T00:15:56.607Z,78.08
2017-12-29T00:18:24.181Z,77.46
2017-12-29T00:20:51.755Z,78.27
2017-12-29T00:23:20.141Z,77.49
2017-12-29T00:25:47.705Z,77.39
2017-12-29T00:28:15.266Z,77.43
2017-12-29T00:30:42.830Z,77.45
2017-12-29T00:33:10.438Z,78.49
2017-12-29T00:35:38.006Z,78.80
2017-12-29T00:38:05.580Z,79.15
2017-12-29T00:40:33.150Z,79.04
2017-12-29T00:43:00.709Z,78.29
2017-12-29T00:45:28.270Z,78.62
2017-12-29T00:47:55.838Z,78.61
2017-12-29T00:50:23.405Z,78.37
2017-12-29T00:52:50.977Z,78.49
2017-12-29T00:55:18.547Z,77.49
2017-12-29T00:57:46.110Z,79.04
2017-12-29T01:00:13.669Z,79.21
2017-12-29T01:02:41.230Z,78.46
2017-12-29T01:05:08.803Z,79.52
2017-12-29T01:07:36.379Z,80.07
2017-12-29T01:10:03.951Z,80.71
2017-12-29T01:12:31.522Z,82.46
2017-12-29T01:14:59.167Z,79.98
2017-12-29T01:17:26.826Z,80.35
2017-12-29T01:19:54.393Z,79.02
2017-12-29T01:22:21.962Z,80.06
2017-12-29T01:24:49.535Z,79.83
2017-12-29T01:27:18.287Z,80.12
2017-12-29T01:29:45.849Z,79.97
2017-12-29T01:32:13.522Z,80.35
2017-12-29T01:34:41.089Z,79.85
2017-12-29T01:37:08.666Z,80.83
2017-12-29T01:39:36.225Z,80.78
2017-12-29T01:42:03.802Z,81.13
2017-12-29T01:44:31.371Z,80.54
2017-12-29T01:46:58.939Z,80.39
2017-12-29T01:49:26.510Z,81.62
2017-12-29T01:51:54.082Z,81.34
2017-12-29T01:54:21.645Z,80.28
2017-12-29T01:56:49.234Z,80.44
2017-12-29T01:59:16.899Z,79.80
2017-12-29T02:01:44.562Z,80.09
2017-12-29T02:04:12.129Z,80.20
2017-12-29T02:06:39.702Z,79.97
2017-12-29T02:09:07.985Z,80.18
2017-12-29T02:11:35.594Z,81.24
2017-12-29T02:16:36.992Z,80.53
2017-12-29T02:19:04.596Z,80.69
2017-12-29T02:21:32.267Z,80.72
2017-12-29T02:23:59.874Z,81.15
2017-12-29T02:26:27.448Z,80.23
2017-12-29T02:28:55.918Z,82.55
2017-12-29T02:31:23.574Z,79.63
2017-12-29T02:33:51.245Z,79.27
2017-12-29T02:36:18.907Z,78.97
2017-12-29T02:38:46.502Z,80.24
2017-12-29T02:41:14.066Z,79.14
2017-12-29T02:43:42.531Z,78.30
2017-12-29T02:46:10.090Z,78.79
2017-12-29T02:48:37.664Z,76.75
2017-12-29T02:51:05.225Z,78.22
2017-12-29T02:53:32.798Z,80.38
2017-12-29T02:56:00.413Z,78.77
2017-12-29T02:58:28.985Z,79.73
2017-12-29T03:00:56.552Z,80.52
2017-12-29T03:03:24.217Z,78.92
2017-12-29T03:05:52.609Z,80.19
2017-12-29T03:08:21.014Z,80.90
2017-12-29T03:10:48.617Z,82.17
2017-12-29T03:13:16.196Z,80.88
2017-12-29T03:15:44.608Z,81.31
2017-12-29T03:18:12.255Z,82.04
2017-12-29T03:20:39.825Z,80.44
2017-12-29T03:23:07.398Z,81.29
2017-12-29T03:25:35.699Z,78.44
2017-12-29T03:28:03.309Z,79.21
2017-12-29T03:30:31.789Z,78.65
2017-12-29T03:33:00.198Z,79.68
2017-12-29T03:35:27.834Z,78.34
2017-12-29T03:37:55.401Z,79.87
2017-12-29T03:40:23.098Z,77.42
2017-12-29T03:42:50.673Z,77.63
2017-12-29T03:45:18.246Z,80.04
2017-12-29T03:47:45.813Z,79.79
2017-12-29T03:50:13.418Z,79.04
2017-12-29T03:52:40.989Z,79.63
2017-12-29T03:55:09.318Z,79.37
2017-12-29T03:57:36.892Z,79.49
2017-12-29T04:00:05.361Z,80.32
2017-12-29T04:02:32.978Z,80.18
2017-12-29T04:05:00.614Z,78.95
2017-12-29T04:07:28.312Z,77.16
2017-12-29T04:09:55.877Z,78.85
2017-12-29T04:12:23.447Z,79.08
2017-12-29T04:14:51.095Z,78.77
2017-12-29T04:17:18.658Z,79.23
2017-12-29T04:19:46.229Z,78.48
2017-12-29T04:22:13.797Z,78.11
2017-12-29T04:24:41.459Z,77.69
2017-12-29T04:27:09.145Z,80.22
2017-12-29T04:29:36.829Z,80.81
2017-12-29T04:32:04.401Z,79.43
2017-12-29T04:34:31.965Z,80.65
2017-12-29T04:36:59.538Z,79.42
2017-12-29T04:39:27.114Z,80.38
2017-12-29T04:41:54.699Z,80.08
2017-12-29T04:44:23.081Z,80.48
2017-12-29T04:46:50.663Z,80.62
2017-12-29T04:49:18.240Z,81.47
2017-12-29T04:51:45.807Z,80.50
2017-12-29T04:54:14.149Z,80.48
2017-12-29T04:56:41.724Z,81.78
2017-12-29T04:59:09.294Z,81.35
2017-12-29T05:01:36.918Z,81.29
2017-12-29T05:04:04.493Z,81.61
2017-12-29T05:06:32.073Z,81.58
2017-12-29T05:08:59.678Z,82.42
2017-12-29T05:11:27.248Z,82.63
2017-12-29T05:13:55.853Z,82.81
2017-12-29T05:16:23.467Z,83.16
2017-12-29T05:18:51.033Z,84.11
2017-12-29T05:21:18.603Z,84.19
2017-12-29T05:23:46.216Z,83.60
2017-12-29T05:26:13.798Z,83.58
2017-12-29T05:28:42.293Z,83.26
2017-12-29T05:31:09.862Z,84.43
2017-12-29T05:33:37.438Z,83.45
2017-12-29T05:36:05.002Z,83.26
2017-12-29T05:38:32.574Z,83.81
2017-12-29T05:41:00.153Z,83.19
2017-12-29T05:43:27.724Z,84.12
2017-12-29T05:45:55.294Z,84.64
2017-12-29T05:48:22.910Z,82.74
2017-12-29T05:50:50.483Z,82.92
2017-12-29T05:53:18.056Z,84.14
2017-12-29T05:55:45.628Z,82.83
2017-12-29T05:58:13.210Z,83.86
2017-12-29T06:00:40.828Z,84.05
2017-12-29T06:03:08.398Z,82.96
2017-12-29T06:05:36.901Z,82.90
2017-12-29T06:08:04.578Z,84.00
2017-12-29T06:10:32.147Z,84.31
2017-12-29T06:12:59.726Z,83.73
2017-12-29T06:15:27.334Z,84.60
2017-12-29T06:17:54.930Z,84.37
2017-12-29T06:20:23.254Z,84.19
2017-12-29T06:22:50.834Z,85.12
2017-12-29T06:25:18.407Z,84.78
2017-12-29T06:27:46.874Z,82.52
2017-12-29T06:30:14.459Z,82.14
2017-12-29T06:32:42.034Z,82.91
2017-12-29T06:35:09.750Z,81.15
2017-12-29T06:37:38.138Z,81.19
2017-12-29T06:40:06.618Z,81.29
2017-12-29T06:42:34.998Z,81.06
2017-12-29T06:45:03.109Z,80.77
2017-12-29T06:47:30.839Z,80.64
2017-12-29T06:49:59.313Z,80.31
2017-12-29T06:52:27.578Z,79.71
2017-12-29T06:54:55.927Z,81.21
2017-12-29T06:57:23.506Z,81.47
2017-12-29T06:59:51.069Z,79.37
2017-12-29T07:02:19.654Z,80.25
2017-12-29T07:04:47.287Z,78.96
2017-12-29T07:07:14.866Z,80.04
2017-12-29T07:09:42.507Z,78.45
2017-12-29T07:12:10.170Z,78.75
2017-12-29T07:14:38.501Z,79.36
2017-12-29T07:17:06.074Z,79.53
2017-12-29T07:19:33.645Z,79.88
2017-12-29T07:22:01.232Z,79.75
2017-12-29T07:24:28.872Z,78.55
2017-12-29T07:27:11.703Z,78.64
2017-12-29T07:29:47.345Z,78.59
2017-12-29T07:32:15.333Z,78.75
2017-12-29T07:34:42.993Z,78.68
2017-12-29T07:37:10.562Z,78.66
2017-12-29T07:39:38.141Z,78.24
2017-12-29T07:42:05.777Z,79.49
2017-12-29T07:44:33.354Z,80.05
2017-12-29T07:47:00.919Z,79.10
2017-12-29T07:49:28.566Z,78.90
2017-12-29T07:51:56.142Z,79.43
2017-12-29T07:54:23.750Z,80.04
2017-12-29T07:56:51.357Z,78.65
2017-12-29T07:59:18.965Z,77.57
2017-12-29T08:01:46.577Z,78.31
2017-12-29T08:04:14.237Z,77.26
2017-12-29T08:06:41.813Z,78.09
2017-12-29T08:09:10.412Z,77.32
2017-12-29T08:11:38.045Z,77.80
2017-12-29T08:14:05.626Z,78.55
2017-12-29T08:16:33.275Z,78.36
2017-12-29T08:19:00.930Z,77.29
2017-12-29T08:21:28.506Z,77.09
2017-12-29T08:23:56.078Z,76.81
2017-12-29T08:26:23.765Z,76.45
2017-12-29T08:28:51.336Z,76.33
2017-12-29T08:31:20.319Z,76.20
2017-12-29T08:33:47.938Z,76.88
2017-12-29T08:36:15.513Z,75.50
2017-12-29T08:38:43.093Z,76.18
2017-12-29T08:41:10.861Z,75.30
2017-12-29T08:43:38.450Z,76.45
2017-12-29T08:46:06.028Z,75.69
2017-12-29T08:48:33.607Z,75.64
2017-12-29T08:51:01.174Z,76.03
2017-12-29T08:53:29.616Z,76.14
2017-12-29T08:55:57.570Z,75.53
2017-12-29T08:58:26.182Z,75.89
2017-12-29T09:00:53.759Z,76.40
2017-12-29T09:03:22.152Z,76.59
2017-12-29T09:05:49.854Z,75.95
2017-12-29T09:08:18.230Z,75.55
2017-12-29T09:10:45.802Z,76.15
2017-12-29T09:13:13.374Z,76.34
2017-12-29T09:15:41.114Z,76.63
2017-12-29T09:18:08.696Z,77.54
2017-12-29T09:20:36.266Z,76.68
2017-12-29T09:23:03.883Z,77.70
2017-12-29T09:25:31.464Z,77.31
2017-12-29T09:27:59.082Z,77.60
2017-12-29T09:30:26.663Z,78.09
2017-12-29T09:32:54.418Z,78.04
2017-12-29T09:35:21.986Z,78.41
2017-12-29T09:37:50.342Z,78.35
2017-12-29T09:40:17.939Z,78.27
2017-12-29T09:42:45.546Z,78.23
2017-12-29T09:45:13.205Z,77.82
2017-12-29T09:47:40.829Z,78.25
2017-12-29T09:50:08.397Z,76.69
2017-12-29T09:52:36.070Z,76.88
2017-12-29T09:55:03.698Z,76.09
2017-12-29T09:57:31.351Z,76.01
2017-12-29T09:59:58.932Z,76.11
2017-12-29T10:02:26.512Z,75.73
2017-12-29T10:04:54.131Z,75.95
2017-12-29T10:07:21.794Z,75.56
2017-12-29T10:09:49.519Z,75.36
2017-12-29T10:12:17.128Z,76.17
2017-12-29T10:14:44.753Z,74.71
2017-12-29T10:17:12.363Z,74.68
2017-12-29T10:19:40.016Z,75.13
2017-12-29T10:22:07.600Z,75.35
2017-12-29T10:24:35.177Z,75.09
2017-12-29T10:27:08.027Z,74.47
2017-12-29T10:29:35.610Z,74.72
2017-12-29T10:32:03.186Z,74.78
2017-12-29T10:34:30.775Z,75.11
2017-12-29T10:36:58.346Z,74.90
2017-12-29T10:39:25.931Z,73.43
2017-12-29T10:41:54.444Z,74.86
2017-12-29T10:44:22.062Z,74.33
2017-12-29T10:46:50.660Z,74.72
2017-12-29T10:49:18.243Z,72.44
2017-12-29T10:51:45.875Z,73.15
2017-12-29T10:54:14.256Z,73.36
2017-12-29T10:56:41.887Z,73.00
2017-12-29T10:59:09.500Z,73.69
2017-12-29T11:01:37.143Z,73.10
2017-12-29T11:04:04.757Z,71.96
2017-12-29T11:06:32.325Z,72.25
2017-12-29T11:08:59.899Z,73.10
2017-12-29T11:11:27.511Z,72.41
2017-12-29T11:13:55.083Z,71.60
2017-12-29T11:16:23.585Z,72.37
2017-12-29T11:18:51.158Z,71.30
2017-12-29T11:21:19.547Z,72.13
2017-12-29T11:23:47.121Z,72.67
2017-12-29T11:26:14.695Z,73.71
2017-12-29T11:28:42.267Z,73.07
2017-12-29T11:31:09.838Z,71.74
2017-12-29T11:33:37.450Z,71.69
2017-12-29T11:36:05.879Z,72.01
2017-12-29T11:38:33.486Z,72.06
2017-12-29T11:41:01.095Z,72.07
2017-12-29T11:43:28.666Z,71.32
2017-12-29T11:45:56.307Z,71.32
2017-12-29T11:48:24.782Z,72.19
2017-12-29T11:50:52.402Z,71.47
2017-12-29T11:53:19.981Z,71.36
2017-12-29T11:55:47.572Z,71.36
2017-12-29T11:58:15.147Z,72.39
2017-12-29T12:00:42.719Z,71.65
2017-12-29T12:03:10.286Z,71.76
2017-12-29T12:05:37.865Z,71.49
2017-12-29T12:08:05.445Z,72.65
2017-12-29T12:10:33.007Z,73.54
2017-12-29T12:13:00.574Z,70.41
2017-12-29T12:15:28.847Z,70.51
2017-12-29T12:17:56.495Z,71.48
2017-12-29T12:20:24.100Z,70.13
2017-12-29T12:22:51.675Z,72.32
2017-12-29T12:25:20.019Z,70.67
2017-12-29T12:27:47.590Z,71.11
2017-12-29T12:30:15.203Z,71.32
2017-12-29T12:32:42.891Z,71.52
2017-12-29T12:35:10.471Z,70.33
2017-12-29T12:37:38.266Z,70.35
2017-12-29T12:40:05.864Z,71.22
2017-12-29T12:42:33.446Z,72.06
2017-12-29T12:45:01.852Z,72.67
2017-12-29T12:47:29.523Z,73.79
2017-12-29T12:49:58.101Z,73.88
2017-12-29T12:52:25.766Z,71.78
2017-12-29T12:54:53.685Z,72.39
2017-12-29T12:57:21.263Z,71.51
2017-12-29T12:59:48.831Z,71.61
2017-12-29T13:02:16.398Z,73.16
2017-12-29T13:04:43.963Z,71.40
2017-12-29T13:07:11.913Z,71.60
2017-12-29T13:09:39.510Z,72.44
2017-12-29T13:12:07.079Z,72.44
2017-12-29T13:14:34.698Z,71.87
2017-12-29T13:17:02.269Z,72.87
2017-12-29T13:19:29.844Z,72.19
2017-12-29T13:21:57.419Z,73.84
2017-12-29T13:24:25.043Z,73.31
2017-12-29T13:26:52.626Z,71.72
2017-12-29T13:29:20.201Z,72.58
2017-12-29T13:31:47.799Z,72.83
2017-12-29T13:34:15.423Z,74.45
2017-12-29T13:36:43.092Z,72.57
2017-12-29T13:39:10.666Z,73.96
2017-12-29T13:41:39.246Z,72.54
2017-12-29T13:44:06.830Z,72.79
2017-12-29T13:46:35.183Z,71.29
2017-12-29T13:49:02.751Z,72.05
2017-12-29T13:51:30.403Z,73.12
2017-12-29T13:53:58.668Z,71.74
2017-12-29T13:56:26.299Z,71.71
2017-12-29T13:58:53.895Z,71.09
2017-12-29T14:01:21.562Z,72.25
2017-12-29T14:03:49.131Z,72.52
2017-12-29T14:06:16.707Z,71.91
2017-12-29T14:08:44.275Z,74.50
2017-12-29T14:11:11.868Z,74.55
2017-12-29T14:13:39.438Z,75.20
2017-12-29T14:16:07.968Z,75.62
2017-12-29T14:18:35.646Z,77.79
2017-12-29T14:21:03.270Z,75.96
2017-12-29T14:23:30.935Z,77.20
2017-12-29T14:25:58.550Z,77.89
2017-12-29T14:28:26.128Z,77.98
2017-12-29T14:30:53.824Z,78.00
2017-12-29T14:33:21.394Z,78.23
2017-12-29T14:35:48.962Z,77.85
2017-12-29T14:38:16.578Z,78.37
2017-12-29T14:40:44.150Z,79.02
2017-12-29T14:43:11.764Z,79.87
2017-12-29T14:45:39.341Z,80.23
2017-12-29T14:48:06.959Z,79.59
2017-12-29T14:50:34.580Z,79.94
2017-12-29T14:53:02.146Z,79.93
2017-12-29T14:55:29.710Z,80.72
2017-12-29T14:57:57.283Z,81.67
2017-12-29T15:00:24.850Z,81.48
2017-12-29T15:02:52.450Z,81.82
2017-12-29T15:05:20.021Z,81.79
2017-12-29T15:07:47.594Z,82.29
2017-12-29T15:10:15.201Z,82.20
2017-12-29T15:12:42.766Z,82.89
2017-12-29T15:15:10.423Z,83.01
2017-12-29T15:17:38.086Z,82.55
2017-12-29T15:20:05.703Z,82.32
2017-12-29T15:22:33.276Z,82.81
2017-12-29T15:25:00.838Z,83.09
2017-12-29T15:27:28.429Z,84.31
2017-12-29T15:29:56.106Z,84.24
2017-12-29T15:32:23.670Z,83.77
2017-12-29T15:34:52.026Z,84.12
2017-12-29T15:37:20.419Z,84.16
2017-12-29T15:39:48.084Z,84.23
2017-12-29T15:42:16.454Z,83.90
2017-12-29T15:44:45.004Z,85.13
2017-12-29T15:47:12.644Z,84.33
2017-12-29T15:49:40.235Z,84.66
2017-12-29T15:52:07.850Z,84.28
2017-12-29T15:54:36.192Z,84.65
2017-12-29T15:57:04.535Z,85.48
2017-12-29T15:59:33.022Z,84.74
2017-12-29T16:02:00.606Z,85.02
2017-12-29T16:04:28.174Z,85.37
2017-12-29T16:06:55.743Z,85.42
2017-12-29T16:09:23.414Z,85.55
2017-12-29T16:11:50.995Z,85.79
2017-12-29T16:14:18.575Z,84.93
2017-12-29T16:16:46.235Z,85.02
2017-12-29T16:19:13.858Z,85.31
2017-12-29T16:21:41.478Z,84.85
2017-12-29T16:24:09.090Z,84.81
2017-12-29T16:26:36.681Z,85.17
2017-12-29T16:29:05.980Z,85.73
2017-12-29T16:31:33.584Z,85.35
2017-12-29T16:34:01.194Z,85.42
2017-12-29T16:36:28.872Z,85.72
2017-12-29T16:38:56.443Z,86.66
2017-12-29T16:41:24.942Z,85.59
2017-12-29T16:43:53.318Z,87.10
2017-12-29T16:46:20.899Z,85.61
2017-12-29T16:48:49.396Z,86.32
2017-12-29T16:51:17.854Z,86.01
2017-12-29T16:53:46.300Z,86.34
2017-12-29T16:56:13.931Z,86.75
2017-12-29T16:58:42.401Z,87.67
2017-12-29T17:01:10.007Z,87.56
2017-12-29T17:03:37.630Z,88.41
2017-12-29T17:06:05.336Z,87.36
2017-12-29T17:08:33.059Z,86.59
2017-12-29T17:11:01.448Z,87.09
2017-12-29T17:13:29.808Z,87.45
2017-12-29T17:15:57.415Z,87.32
2017-12-29T17:18:25.047Z,86.88
2017-12-29T17:20:52.669Z,87.49
2017-12-29T17:23:20.247Z,87.98
2017-12-29T17:25:47.899Z,88.07
2017-12-29T17:28:15.473Z,88.65
2017-12-29T17:30:43.110Z,89.23
2017-12-29T17:33:11.743Z,89.43
2017-12-29T17:35:39.370Z,89.32
2017-12-29T17:38:07.837Z,88.28
2017-12-29T17:40:36.167Z,88.44
2017-12-29T17:43:04.608Z,88.90
2017-12-29T17:45:32.921Z,88.23
2017-12-29T17:48:00.547Z,88.88
2017-12-29T17:50:28.131Z,88.34
2017-12-29T17:52:55.811Z,87.75
2017-12-29T17:55:23.470Z,88.33
2017-12-29T17:57:51.051Z,87.56
2017-12-29T18:00:18.670Z,87.81
2017-12-29T18:02:46.252Z,88.07
2017-12-29T18:05:13.864Z,87.75
2017-12-29T18:07:41.535Z,87.79
2017-12-29T18:10:09.283Z,88.44
2017-12-29T18:12:36.872Z,88.46
2017-12-29T18:15:04.566Z,88.26
2017-12-29T18:17:32.369Z,88.67
2017-12-29T18:20:00.105Z,88.72
2017-12-29T18:22:27.702Z,89.58
2017-12-29T18:24:55.290Z,88.67
2017-12-29T18:27:22.891Z,88.81
2017-12-29T18:29:50.551Z,88.34
2017-12-29T18:32:18.130Z,88.75
2017-12-29T18:34:45.775Z,88.33
2017-12-29T18:37:15.077Z,88.21
2017-12-29T18:39:44.180Z,88.69
2017-12-29T18:42:11.795Z,88.24
2017-12-29T18:44:39.382Z,88.31
2017-12-29T18:47:07.119Z,88.75
2017-12-29T18:49:35.663Z,89.79
2017-12-29T18:52:03.267Z,89.72
2017-12-29T18:54:31.894Z,89.11
2017-12-29T18:57:00.407Z,88.98
2017-12-29T18:59:27.990Z,89.07
2017-12-29T19:01:55.598Z,90.13
2017-12-29T19:04:23.259Z,89.74
2017-12-29T19:06:50.854Z,89.79
2017-12-29T19:09:18.432Z,89.66
2017-12-29T19:11:46.058Z,89.39
2017-12-29T19:14:13.638Z,89.54
2017-12-29T19:16:41.235Z,90.00
2017-12-29T19:19:11.860Z,89.07
2017-12-29T19:21:39.438Z,89.88
2017-12-29T19:24:07.019Z,90.01
2017-12-29T19:26:34.689Z,89.33
2017-12-29T19:29:02.279Z,88.43
2017-12-29T19:31:29.866Z,88.32
2017-12-29T19:33:57.485Z,88.86
2017-12-29T19:36:25.062Z,89.14
2017-12-29T19:38:53.423Z,88.72
2017-12-29T19:41:21.091Z,88.55
2017-12-29T19:43:48.694Z,88.13
2017-12-29T19:46:16.495Z,88.76
2017-12-29T19:48:45.169Z,88.88
2017-12-29T19:51:12.796Z,88.15
2017-12-29T19:53:40.427Z,88.48
2017-12-29T19:56:08.088Z,87.95
2017-12-29T19:58:36.467Z,88.04
2017-12-29T20:01:05.843Z,88.59
2017-12-29T20:03:33.566Z,88.40
2017-12-29T20:06:01.142Z,87.80
2017-12-29T20:08:29.732Z,88.35
2017-12-29T20:10:58.331Z,88.22
2017-12-29T20:13:26.043Z,88.14
2017-12-29T20:15:53.626Z,88.20
2017-12-29T20:18:21.203Z,88.38
2017-12-29T20:20:49.050Z,87.81
2017-12-29T20:23:16.659Z,87.39
2017-12-29T20:25:45.021Z,87.60
2017-12-29T20:28:13.306Z,87.79
2017-12-29T20:30:42.617Z,88.88
2017-12-29T20:33:11.404Z,88.41
2017-12-29T20:35:39.694Z,87.67
2017-12-29T20:38:10.202Z,88.72
2017-12-29T20:40:38.243Z,88.30
2017-12-29T20:43:08.755Z,87.86
2017-12-29T20:45:39.548Z,89.05
2017-12-29T20:48:07.803Z,89.51
2017-12-29T20:50:37.997Z,88.84
2017-12-29T20:53:08.204Z,89.00
2017-12-29T20:55:37.497Z,88.70
2017-12-29T20:58:06.137Z,89.14
2017-12-29T21:00:34.549Z,89.05
2017-12-29T21:03:03.537Z,88.79
2017-12-29T21:05:31.531Z,89.31
2017-12-29T21:07:59.842Z,89.53
2017-12-29T21:10:27.535Z,89.89
2017-12-29T21:12:55.277Z,89.54
2017-12-29T21:15:23.348Z,89.13
2017-12-29T21:17:51.914Z,89.54
2017-12-29T21:20:23.987Z,89.03
2017-12-29T21:22:51.697Z,89.50
2017-12-29T21:25:20.419Z,89.36
2017-12-29T21:27:48.351Z,89.00
2017-12-29T21:30:18.313Z,90.05
2017-12-29T21:32:46.650Z,90.53
2017-12-29T21:35:14.298Z,90.46
2017-12-29T21:37:43.219Z,89.90
2017-12-29T21:40:12.040Z,90.70
2017-12-29T21:42:39.714Z,89.62
2017-12-29T21:45:07.734Z,89.80
2017-12-29T21:47:37.136Z,90.39
2017-12-29T21:50:05.682Z,89.85
2017-12-29T21:52:33.260Z,89.77
2017-12-29T21:55:01.826Z,89.29
2017-12-29T21:57:30.367Z,88.84
2017-12-29T21:59:57.943Z,89.43
2017-12-29T22:02:25.556Z,89.89
2017-12-29T22:04:53.266Z,89.04
2017-12-29T22:07:20.846Z,89.12
2017-12-29T22:09:49.218Z,89.23
2017-12-29T22:12:17.533Z,89.31
2017-12-29T22:14:45.110Z,89.37
2017-12-29T22:17:12.812Z,89.60
2017-12-29T22:19:40.393Z,88.89
2017-12-29T22:22:08.083Z,88.55
2017-12-29T22:24:35.752Z,89.01
2017-12-29T22:27:04.111Z,89.30
2017-12-29T22:29:31.682Z,89.33
2017-12-29T22:31:59.302Z,89.60
2017-12-29T22:34:26.960Z,89.93
2017-12-29T22:36:54.581Z,89.68
2017-12-29T22:39:22.188Z,90.06
2017-12-29T22:41:49.798Z,89.24
2017-12-29T22:44:17.378Z,88.79
2017-12-29T22:46:45.731Z,89.26
2017-12-29T22:49:13.302Z,88.67
2017-12-29T22:51:40.954Z,88.46
2017-12-29T22:54:08.566Z,88.12
2017-12-29T22:56:36.146Z,87.75
2017-12-29T22:59:03.786Z,87.40
2017-12-29T23:01:31.424Z,87.45
2017-12-29T23:03:59.005Z,88.25
2017-12-29T23:06:26.582Z,88.37
2017-12-29T23:08:54.235Z,87.73
2017-12-29T23:11:22.042Z,88.41
2017-12-29T23:13:49.630Z,88.57
2017-12-29T23:16:17.199Z,88.45
2017-12-29T23:18:44.913Z,87.67
2017-12-29T23:21:12.517Z,88.81
2017-12-29T23:23:40.138Z,88.62
2017-12-29T23:26:07.857Z,88.59
2017-12-29T23:28:36.194Z,88.74
2017-12-29T23:31:03.769Z,88.62
2017-12-29T23:33:31.349Z,88.35
2017-12-29T23:35:58.929Z,88.61
2017-12-29T23:38:26.543Z,88.72
2017-12-29T23:40:54.169Z,87.75
2017-12-29T23:43:21.745Z,88.52
2017-12-29T23:45:49.386Z,88.56
2017-12-29T23:48:16.957Z,88.88
2017-12-29T23:50:44.613Z,88.17
2017-12-29T23:53:12.240Z,88.23
2017-12-29T23:55:39.823Z,88.36
2017-12-29T23:58:07.452Z,88.56
